sensor_id;sensor_type;location;lat;lon;timestamp;pressure;altitude;pressure_sealevel;temperature;humidity
38716;BME280;24833;49.324;8.694;2023-04-19T00:01:42;100453.91;;;10.89;67.63
38716;BME280;24833;49.324;8.694;2023-04-19T00:04:09;100455.94;;;10.87;67.59
38716;BME280;24833;49.324;8.694;2023-04-19T00:06:36;100455.13;;;10.87;67.47
38716;BME280;24833;49.324;8.694;2023-04-19T00:09:03;100456.13;;;10.86;67.37
38716;BME280;24833;49.324;8.694;2023-04-19T00:11:31;100449.78;;;10.87;67.58
38716;BME280;24833;49.324;8.694;2023-04-19T00:13:58;100450.78;;;10.86;67.76
38716;BME280;24833;49.324;8.694;2023-04-19T00:16:25;100452.63;;;10.85;68.10
38716;BME280;24833;49.324;8.694;2023-04-19T00:18:52;100449.13;;;10.85;68.04
38716;BME280;24833;49.324;8.694;2023-04-19T00:21:19;100456.13;;;10.86;67.68
38716;BME280;24833;49.324;8.694;2023-04-19T00:23:46;100443.78;;;10.85;67.47
38716;BME280;24833;49.324;8.694;2023-04-19T00:26:13;100444.81;;;10.84;67.67
38716;BME280;24833;49.324;8.694;2023-04-19T00:28:46;100443.97;;;10.83;67.83
38716;BME280;24833;49.324;8.694;2023-04-19T00:31:14;100450.16;;;10.84;67.53
38716;BME280;24833;49.324;8.694;2023-04-19T00:33:41;100444.81;;;10.84;67.53
38716;BME280;24833;49.324;8.694;2023-04-19T00:36:08;100447.47;;;10.84;67.71
38716;BME280;24833;49.324;8.694;2023-04-19T00:38:36;100449.31;;;10.83;67.33
38716;BME280;24833;49.324;8.694;2023-04-19T00:41:03;100444.97;;;10.82;67.50
38716;BME280;24833;49.324;8.694;2023-04-19T00:43:30;100436.94;;;10.82;67.65
38716;BME280;24833;49.324;8.694;2023-04-19T00:45:57;100429.75;;;10.83;67.91
38716;BME280;24833;49.324;8.694;2023-04-19T00:48:25;100433.28;;;10.83;67.83
38716;BME280;24833;49.324;8.694;2023-04-19T00:50:52;100430.78;;;10.82;67.49
38716;BME280;24833;49.324;8.694;2023-04-19T00:53:18;100431.59;;;10.82;67.82
38716;BME280;24833;49.324;8.694;2023-04-19T00:55:46;100436.31;;;10.80;67.52
38716;BME280;24833;49.324;8.694;2023-04-19T00:58:14;100440.00;;;10.79;67.63
38716;BME280;24833;49.324;8.694;2023-04-19T01:00:42;100429.50;;;10.78;67.62
38716;BME280;24833;49.324;8.694;2023-04-19T01:03:09;100427.84;;;10.77;67.60
38716;BME280;24833;49.324;8.694;2023-04-19T01:05:36;100425.16;;;10.77;67.98
38716;BME280;24833;49.324;8.694;2023-04-19T01:08:03;100426.16;;;10.76;67.67
38716;BME280;24833;49.324;8.694;2023-04-19T01:10:30;100419.16;;;10.75;67.95
38716;BME280;24833;49.324;8.694;2023-04-19T01:12:57;100424.50;;;10.75;68.03
38716;BME280;24833;49.324;8.694;2023-04-19T01:15:25;100419.16;;;10.75;67.77
38716;BME280;24833;49.324;8.694;2023-04-19T01:17:52;100415.84;;;10.73;67.49
38716;BME280;24833;49.324;8.694;2023-04-19T01:20:21;100420.34;;;10.72;67.95
38716;BME280;24833;49.324;8.694;2023-04-19T01:22:49;100406.16;;;10.72;68.06
38716;BME280;24833;49.324;8.694;2023-04-19T01:25:16;100417.88;;;10.71;67.61
38716;BME280;24833;49.324;8.694;2023-04-19T01:27:43;100415.53;;;10.68;67.91
38716;BME280;24833;49.324;8.694;2023-04-19T01:30:10;100411.22;;;10.67;67.52
38716;BME280;24833;49.324;8.694;2023-04-19T01:32:37;100404.22;;;10.66;68.07
38716;BME280;24833;49.324;8.694;2023-04-19T01:35:05;100397.22;;;10.64;67.90
38716;BME280;24833;49.324;8.694;2023-04-19T01:37:35;100400.91;;;10.63;67.34
38716;BME280;24833;49.324;8.694;2023-04-19T01:40:04;100399.22;;;10.62;68.05
38716;BME280;24833;49.324;8.694;2023-04-19T01:42:31;100406.59;;;10.60;68.08
38716;BME280;24833;49.324;8.694;2023-04-19T01:44:59;100404.94;;;10.59;67.95
38716;BME280;24833;49.324;8.694;2023-04-19T01:47:26;100406.97;;;10.57;68.12
38716;BME280;24833;49.324;8.694;2023-04-19T01:49:53;100411.63;;;10.55;68.25
38716;BME280;24833;49.324;8.694;2023-04-19T01:52:21;100405.66;;;10.53;67.89
38716;BME280;24833;49.324;8.694;2023-04-19T01:54:48;100402.34;;;10.51;68.15
38716;BME280;24833;49.324;8.694;2023-04-19T01:57:15;100397.34;;;10.48;67.84
38716;BME280;24833;49.324;8.694;2023-04-19T01:59:42;100395.69;;;10.47;68.34
38716;BME280;24833;49.324;8.694;2023-04-19T02:02:09;100386.22;;;10.45;68.13
38716;BME280;24833;49.324;8.694;2023-04-19T02:04:37;100386.41;;;10.43;67.74
38716;BME280;24833;49.324;8.694;2023-04-19T02:07:05;100384.72;;;10.42;68.42
38716;BME280;24833;49.324;8.694;2023-04-19T02:09:37;100381.41;;;10.40;68.11
38716;BME280;24833;49.324;8.694;2023-04-19T02:12:05;100377.72;;;10.41;68.66
38716;BME280;24833;49.324;8.694;2023-04-19T02:14:32;100371.72;;;10.39;68.38
38716;BME280;24833;49.324;8.694;2023-04-19T02:16:59;100362.06;;;10.38;68.52
38716;BME280;24833;49.324;8.694;2023-04-19T02:19:26;100368.41;;;10.37;67.98
38716;BME280;24833;49.324;8.694;2023-04-19T02:21:53;100365.91;;;10.35;68.39
38716;BME280;24833;49.324;8.694;2023-04-19T02:24:23;100370.41;;;10.35;67.93
38716;BME280;24833;49.324;8.694;2023-04-19T02:26:51;100370.41;;;10.35;68.30
38716;BME280;24833;49.324;8.694;2023-04-19T02:29:18;100368.13;;;10.32;67.99
38716;BME280;24833;49.324;8.694;2023-04-19T02:31:45;100363.78;;;10.31;67.96
38716;BME280;24833;49.324;8.694;2023-04-19T02:34:12;100366.63;;;10.29;67.96
38716;BME280;24833;49.324;8.694;2023-04-19T02:36:39;100357.78;;;10.29;68.30
38716;BME280;24833;49.324;8.694;2023-04-19T02:39:06;100363.13;;;10.29;68.61
38716;BME280;24833;49.324;8.694;2023-04-19T02:41:37;100361.28;;;10.29;68.70
38716;BME280;24833;49.324;8.694;2023-04-19T02:44:04;100355.13;;;10.29;68.72
38716;BME280;24833;49.324;8.694;2023-04-19T02:46:33;100357.97;;;10.27;68.38
38716;BME280;24833;49.324;8.694;2023-04-19T02:49:00;100357.97;;;10.27;68.02
38716;BME280;24833;49.324;8.694;2023-04-19T02:51:27;100350.16;;;10.26;68.83
38716;BME280;24833;49.324;8.694;2023-04-19T02:53:55;100349.50;;;10.24;68.60
38716;BME280;24833;49.324;8.694;2023-04-19T02:56:22;100350.50;;;10.23;68.43
38716;BME280;24833;49.324;8.694;2023-04-19T02:58:52;100354.13;;;10.22;68.49
38716;BME280;24833;49.324;8.694;2023-04-19T03:01:19;100352.47;;;10.21;68.27
38716;BME280;24833;49.324;8.694;2023-04-19T03:03:46;100351.66;;;10.20;68.44
38716;BME280;24833;49.324;8.694;2023-04-19T03:06:13;100346.31;;;10.20;68.62
38716;BME280;24833;49.324;8.694;2023-04-19T03:08:40;100345.50;;;10.20;68.23
38716;BME280;24833;49.324;8.694;2023-04-19T03:11:07;100340.16;;;10.20;68.36
38716;BME280;24833;49.324;8.694;2023-04-19T03:13:34;100350.00;;;10.19;68.55
38716;BME280;24833;49.324;8.694;2023-04-19T03:16:02;100345.50;;;10.20;68.77
38716;BME280;24833;49.324;8.694;2023-04-19T03:18:31;100342.19;;;10.18;68.57
38716;BME280;24833;49.324;8.694;2023-04-19T03:21:00;100337.84;;;10.17;68.68
38716;BME280;24833;49.324;8.694;2023-04-19T03:23:31;100338.84;;;10.16;68.72
38716;BME280;24833;49.324;8.694;2023-04-19T03:26:00;100342.53;;;10.15;68.44
38716;BME280;24833;49.324;8.694;2023-04-19T03:28:43;100333.88;;;10.13;68.73
38716;BME280;24833;49.324;8.694;2023-04-19T03:31:19;100332.22;;;10.12;68.43
38716;BME280;24833;49.324;8.694;2023-04-19T03:33:48;100332.22;;;10.12;68.98
38716;BME280;24833;49.324;8.694;2023-04-19T03:36:17;100335.91;;;10.10;69.15
38716;BME280;24833;49.324;8.694;2023-04-19T03:38:46;100328.22;;;10.07;69.10
38716;BME280;24833;49.324;8.694;2023-04-19T03:41:24;100327.41;;;10.07;68.40
38716;BME280;24833;49.324;8.694;2023-04-19T03:44:01;100323.09;;;10.06;69.64
38716;BME280;24833;49.324;8.694;2023-04-19T03:46:28;100315.41;;;10.03;69.41
38716;BME280;24833;49.324;8.694;2023-04-19T03:48:58;100324.63;;;10.00;69.13
38716;BME280;24833;49.324;8.694;2023-04-19T03:51:27;100311.47;;;9.99;69.08
38716;BME280;24833;49.324;8.694;2023-04-19T03:53:54;100317.97;;;9.96;69.45
38716;BME280;24833;49.324;8.694;2023-04-19T03:56:21;100316.31;;;9.95;68.68
38716;BME280;24833;49.324;8.694;2023-04-19T03:58:50;100303.16;;;9.94;69.35
38716;BME280;24833;49.324;8.694;2023-04-19T04:01:21;100313.38;;;9.90;69.31
38716;BME280;24833;49.324;8.694;2023-04-19T04:03:51;100311.69;;;9.89;69.74
38716;BME280;24833;49.324;8.694;2023-04-19T04:06:18;100312.06;;;9.86;69.50
38716;BME280;24833;49.324;8.694;2023-04-19T04:08:46;100315.72;;;9.85;69.58
38716;BME280;24833;49.324;8.694;2023-04-19T04:11:13;100315.09;;;9.83;69.96
38716;BME280;24833;49.324;8.694;2023-04-19T04:13:40;100312.75;;;9.80;70.00
38716;BME280;24833;49.324;8.694;2023-04-19T04:16:16;100311.44;;;9.76;69.54
38716;BME280;24833;49.324;8.694;2023-04-19T04:18:43;100318.78;;;9.74;69.73
38716;BME280;24833;49.324;8.694;2023-04-19T04:21:13;100314.66;;;9.71;69.51
38716;BME280;24833;49.324;8.694;2023-04-19T04:23:44;100316.84;;;9.68;70.41
38716;BME280;24833;49.324;8.694;2023-04-19T04:26:20;100314.53;;;9.65;69.81
38716;BME280;24833;49.324;8.694;2023-04-19T04:29:10;100311.38;;;9.61;69.57
38716;BME280;24833;49.324;8.694;2023-04-19T04:31:39;100306.22;;;9.60;69.48
38716;BME280;24833;49.324;8.694;2023-04-19T04:34:06;100310.91;;;9.58;69.92
38716;BME280;24833;49.324;8.694;2023-04-19T04:36:39;100313.91;;;9.54;69.92
38716;BME280;24833;49.324;8.694;2023-04-19T04:39:08;100318.41;;;9.54;69.71
38716;BME280;24833;49.324;8.694;2023-04-19T04:41:37;100314.28;;;9.51;69.52
38716;BME280;24833;49.324;8.694;2023-04-19T04:44:08;100317.94;;;9.50;69.55
38716;BME280;24833;49.324;8.694;2023-04-19T04:46:49;100313.59;;;9.49;70.17
38716;BME280;24833;49.324;8.694;2023-04-19T04:49:22;100304.13;;;9.47;69.81
38716;BME280;24833;49.324;8.694;2023-04-19T04:51:50;100313.13;;;9.46;70.25
38716;BME280;24833;49.324;8.694;2023-04-19T04:54:17;100314.97;;;9.45;70.51
38716;BME280;24833;49.324;8.694;2023-04-19T04:56:45;100309.81;;;9.44;70.05
38716;BME280;24833;49.324;8.694;2023-04-19T04:59:12;100303.81;;;9.42;70.33
38716;BME280;24833;49.324;8.694;2023-04-19T05:01:43;100308.31;;;9.41;70.18
38716;BME280;24833;49.324;8.694;2023-04-19T05:04:10;100308.31;;;9.41;70.31
38716;BME280;24833;49.324;8.694;2023-04-19T05:06:37;100316.31;;;9.41;70.34
38716;BME280;24833;49.324;8.694;2023-04-19T05:09:08;100311.16;;;9.40;69.94
38716;BME280;24833;49.324;8.694;2023-04-19T05:11:35;100319.34;;;9.38;70.45
38716;BME280;24833;49.324;8.694;2023-04-19T05:14:03;100312.19;;;9.39;69.90
38716;BME280;24833;49.324;8.694;2023-04-19T05:16:32;100313.38;;;9.36;70.76
38716;BME280;24833;49.324;8.694;2023-04-19T05:18:59;100309.69;;;9.37;69.87
38716;BME280;24833;49.324;8.694;2023-04-19T05:21:32;100311.69;;;9.35;69.79
38716;BME280;24833;49.324;8.694;2023-04-19T05:24:02;100316.03;;;9.36;70.49
38716;BME280;24833;49.324;8.694;2023-04-19T05:26:30;100309.84;;;9.36;70.09
38716;BME280;24833;49.324;8.694;2023-04-19T05:28:58;100316.03;;;9.36;70.07
38716;BME280;24833;49.324;8.694;2023-04-19T05:31:47;100315.16;;;9.36;70.10
38716;BME280;24833;49.324;8.694;2023-04-19T05:34:21;100325.69;;;9.37;70.03
38716;BME280;24833;49.324;8.694;2023-04-19T05:36:49;100315.84;;;9.38;70.00
38716;BME280;24833;49.324;8.694;2023-04-19T05:39:16;100320.16;;;9.39;70.03
38716;BME280;24833;49.324;8.694;2023-04-19T05:41:43;100323.66;;;9.39;69.99
38716;BME280;24833;49.324;8.694;2023-04-19T05:44:10;100320.00;;;9.40;69.94
38716;BME280;24833;49.324;8.694;2023-04-19T05:46:37;100318.97;;;9.41;69.83
38716;BME280;24833;49.324;8.694;2023-04-19T05:49:06;100315.31;;;9.42;69.75
38716;BME280;24833;49.324;8.694;2023-04-19T05:51:59;100317.81;;;9.44;69.84
38716;BME280;24833;49.324;8.694;2023-04-19T05:54:41;100321.13;;;9.46;69.69
38716;BME280;24833;49.324;8.694;2023-04-19T05:57:10;100318.28;;;9.47;70.06
38716;BME280;24833;49.324;8.694;2023-04-19T05:59:37;100334.09;;;9.49;70.15
38716;BME280;24833;49.324;8.694;2023-04-19T06:02:04;100332.94;;;9.51;69.83
38716;BME280;24833;49.324;8.694;2023-04-19T06:04:32;100329.91;;;9.54;69.91
38716;BME280;24833;49.324;8.694;2023-04-19T06:07:00;100335.72;;;9.58;70.14
38716;BME280;24833;49.324;8.694;2023-04-19T06:09:27;100331.69;;;9.62;70.18
38716;BME280;24833;49.324;8.694;2023-04-19T06:11:54;100337.53;;;9.66;70.23
38716;BME280;24833;49.324;8.694;2023-04-19T06:14:23;100338.47;;;9.73;70.46
38716;BME280;24833;49.324;8.694;2023-04-19T06:16:50;100332.78;;;9.76;70.11
38716;BME280;24833;49.324;8.694;2023-04-19T06:19:17;100336.59;;;9.81;70.11
38716;BME280;24833;49.324;8.694;2023-04-19T06:21:44;100336.06;;;9.86;70.25
38716;BME280;24833;49.324;8.694;2023-04-19T06:24:12;100338.03;;;9.92;70.47
38716;BME280;24833;49.324;8.694;2023-04-19T06:26:39;100345.97;;;10.00;70.54
38716;BME280;24833;49.324;8.694;2023-04-19T06:29:06;100337.25;;;10.06;70.78
38716;BME280;24833;49.324;8.694;2023-04-19T06:31:33;100342.88;;;10.12;70.27
38716;BME280;24833;49.324;8.694;2023-04-19T06:34:00;100336.84;;;10.18;71.05
38716;BME280;24833;49.324;8.694;2023-04-19T06:36:27;100337.81;;;10.25;70.91
38716;BME280;24833;49.324;8.694;2023-04-19T06:38:54;100339.78;;;10.31;70.75
38716;BME280;24833;49.324;8.694;2023-04-19T06:41:21;100339.69;;;10.39;71.02
38716;BME280;24833;49.324;8.694;2023-04-19T06:43:49;100336.94;;;10.47;71.12
38716;BME280;24833;49.324;8.694;2023-04-19T06:46:16;100339.53;;;10.55;71.43
38716;BME280;24833;49.324;8.694;2023-04-19T06:48:43;100338.81;;;10.61;71.33
38716;BME280;24833;49.324;8.694;2023-04-19T06:51:10;100331.72;;;10.69;71.25
38716;BME280;24833;49.324;8.694;2023-04-19T06:53:37;100323.81;;;10.75;70.94
38716;BME280;24833;49.324;8.694;2023-04-19T06:56:04;100331.94;;;10.82;71.14
38716;BME280;24833;49.324;8.694;2023-04-19T06:58:31;100328.19;;;10.91;71.69
38716;BME280;24833;49.324;8.694;2023-04-19T07:01:04;100316.75;;;10.97;71.25
38716;BME280;24833;49.324;8.694;2023-04-19T07:03:32;100322.00;;;11.05;71.56
38716;BME280;24833;49.324;8.694;2023-04-19T07:05:59;100321.06;;;11.13;71.79
38716;BME280;24833;49.324;8.694;2023-04-19T07:08:28;100321.78;;;11.22;71.71
38716;BME280;24833;49.324;8.694;2023-04-19T07:11:14;100311.19;;;11.28;71.64
38716;BME280;24833;49.324;8.694;2023-04-19T07:13:41;100311.94;;;11.37;71.82
38716;BME280;24833;49.324;8.694;2023-04-19T07:16:08;100318.19;;;11.44;71.72
38716;BME280;24833;49.324;8.694;2023-04-19T07:18:35;100313.53;;;11.53;71.72
38716;BME280;24833;49.324;8.694;2023-04-19T07:21:02;100309.72;;;11.62;72.11
38716;BME280;24833;49.324;8.694;2023-04-19T07:23:29;100317.47;;;11.71;71.63
38716;BME280;24833;49.324;8.694;2023-04-19T07:25:56;100322.53;;;11.81;72.11
38716;BME280;24833;49.324;8.694;2023-04-19T07:28:23;100306.16;;;11.91;72.11
38716;BME280;24833;49.324;8.694;2023-04-19T07:30:50;100311.38;;;11.99;71.89
38716;BME280;24833;49.324;8.694;2023-04-19T07:33:17;100318.47;;;12.07;71.87
38716;BME280;24833;49.324;8.694;2023-04-19T07:35:44;100312.41;;;12.19;72.55
38716;BME280;24833;49.324;8.694;2023-04-19T07:38:11;100312.50;;;12.33;72.49
38716;BME280;24833;49.324;8.694;2023-04-19T07:40:39;100320.44;;;12.47;72.50
38716;BME280;24833;49.324;8.694;2023-04-19T07:43:06;100312.31;;;12.62;72.88
38716;BME280;24833;49.324;8.694;2023-04-19T07:45:33;100315.75;;;12.77;72.66
38716;BME280;24833;49.324;8.694;2023-04-19T07:48:00;100316.00;;;12.89;72.48
38716;BME280;24833;49.324;8.694;2023-04-19T07:50:27;100314.00;;;12.98;72.90
38716;BME280;24833;49.324;8.694;2023-04-19T07:52:54;100316.31;;;13.07;72.52
38716;BME280;24833;49.324;8.694;2023-04-19T07:55:22;100310.16;;;13.14;72.59
38716;BME280;24833;49.324;8.694;2023-04-19T07:57:49;100314.72;;;13.20;72.55
38716;BME280;24833;49.324;8.694;2023-04-19T08:00:19;100308.16;;;13.22;72.03
38716;BME280;24833;49.324;8.694;2023-04-19T08:02:49;100309.81;;;13.23;72.28
38716;BME280;24833;49.324;8.694;2023-04-19T08:05:17;100314.16;;;13.24;72.08
38716;BME280;24833;49.324;8.694;2023-04-19T08:07:44;100304.44;;;13.23;72.12
38716;BME280;24833;49.324;8.694;2023-04-19T08:10:12;100318.88;;;13.22;71.71
38716;BME280;24833;49.324;8.694;2023-04-19T08:12:39;100312.91;;;13.20;71.55
38716;BME280;24833;49.324;8.694;2023-04-19T08:15:23;100314.28;;;13.16;71.92
38716;BME280;24833;49.324;8.694;2023-04-19T08:18:09;100310.16;;;13.14;71.68
38716;BME280;24833;49.324;8.694;2023-04-19T08:20:37;100308.06;;;13.09;71.80
38716;BME280;24833;49.324;8.694;2023-04-19T08:23:05;100313.22;;;13.04;71.39
38716;BME280;24833;49.324;8.694;2023-04-19T08:25:44;100303.91;;;13.00;71.39
38716;BME280;24833;49.324;8.694;2023-04-19T08:28:11;100297.25;;;12.96;71.32
38716;BME280;24833;49.324;8.694;2023-04-19T08:30:39;100302.22;;;12.92;71.49
38716;BME280;24833;49.324;8.694;2023-04-19T08:33:06;100304.25;;;12.90;71.55
38716;BME280;24833;49.324;8.694;2023-04-19T08:35:34;100300.13;;;12.88;71.58
38716;BME280;24833;49.324;8.694;2023-04-19T08:38:04;100296.81;;;12.86;71.93
38716;BME280;24833;49.324;8.694;2023-04-19T08:40:31;100296.81;;;12.86;71.76
38716;BME280;24833;49.324;8.694;2023-04-19T08:42:58;100293.09;;;12.87;71.54
38716;BME280;24833;49.324;8.694;2023-04-19T08:45:29;100295.56;;;12.88;72.12
38716;BME280;24833;49.324;8.694;2023-04-19T08:47:57;100294.53;;;12.89;71.74
38716;BME280;24833;49.324;8.694;2023-04-19T08:50:28;100306.09;;;12.90;71.75
38716;BME280;24833;49.324;8.694;2023-04-19T08:52:59;100292.31;;;12.93;72.15
38716;BME280;24833;49.324;8.694;2023-04-19T08:55:47;100294.53;;;12.89;70.43
38716;BME280;24833;49.324;8.694;2023-04-19T08:58:18;100284.03;;;12.88;70.87
38716;BME280;24833;49.324;8.694;2023-04-19T09:01:07;100278.88;;;12.86;71.62
38716;BME280;24833;49.324;8.694;2023-04-19T09:03:43;100265.72;;;12.91;72.27
38716;BME280;24833;49.324;8.694;2023-04-19T09:06:39;100257.28;;;13.01;71.90
38716;BME280;24833;49.324;8.694;2023-04-19T09:09:19;100260.44;;;13.11;72.49
38716;BME280;24833;49.324;8.694;2023-04-19T09:12:15;100261.94;;;13.20;72.49
38716;BME280;24833;49.324;8.694;2023-04-19T09:14:45;100268.97;;;13.28;72.17
38716;BME280;24833;49.324;8.694;2023-04-19T09:17:16;100264.47;;;13.35;72.69
38716;BME280;24833;49.324;8.694;2023-04-19T09:19:48;100259.75;;;13.44;72.83
38716;BME280;24833;49.324;8.694;2023-04-19T09:22:15;100254.59;;;13.49;72.43
38716;BME280;24833;49.324;8.694;2023-04-19T09:24:42;100256.47;;;13.55;72.65
38716;BME280;24833;49.324;8.694;2023-04-19T09:27:32;100255.06;;;13.59;72.66
38716;BME280;24833;49.324;8.694;2023-04-19T09:30:02;100249.88;;;13.64;72.71
38716;BME280;24833;49.324;8.694;2023-04-19T09:32:46;100235.66;;;13.70;72.58
38716;BME280;24833;49.324;8.694;2023-04-19T09:35:14;100246.00;;;13.73;72.43
38716;BME280;24833;49.324;8.694;2023-04-19T09:37:41;100238.97;;;13.79;72.67
38716;BME280;24833;49.324;8.694;2023-04-19T09:40:24;100236.91;;;13.81;71.86
38716;BME280;24833;49.324;8.694;2023-04-19T09:42:51;100238.56;;;13.82;71.83
38716;BME280;24833;49.324;8.694;2023-04-19T09:45:21;100230.13;;;13.85;72.00
38716;BME280;24833;49.324;8.694;2023-04-19T09:48:01;100227.63;;;13.90;72.86
38716;BME280;24833;49.324;8.694;2023-04-19T09:50:29;100236.09;;;13.94;72.81
38716;BME280;24833;49.324;8.694;2023-04-19T09:52:58;100230.31;;;13.97;72.54
38716;BME280;24833;49.324;8.694;2023-04-19T09:55:26;100222.88;;;13.99;72.33
38716;BME280;24833;49.324;8.694;2023-04-19T09:57:56;100229.69;;;14.01;72.23
38716;BME280;24833;49.324;8.694;2023-04-19T10:00:24;100221.84;;;14.00;72.48
38716;BME280;24833;49.324;8.694;2023-04-19T10:02:55;100219.38;;;13.98;72.14
38716;BME280;24833;49.324;8.694;2023-04-19T10:05:24;100217.91;;;13.96;71.79
38716;BME280;24833;49.324;8.694;2023-04-19T10:07:52;100220.00;;;13.94;72.17
38716;BME280;24833;49.324;8.694;2023-04-19T10:10:26;100219.56;;;13.90;71.92
38716;BME280;24833;49.324;8.694;2023-04-19T10:13:11;100224.53;;;13.86;71.89
38716;BME280;24833;49.324;8.694;2023-04-19T10:15:42;100215.00;;;13.84;71.87
38716;BME280;24833;49.324;8.694;2023-04-19T10:18:21;100212.97;;;13.79;71.92
38716;BME280;24833;49.324;8.694;2023-04-19T10:20:57;100224.75;;;13.78;71.92
38716;BME280;24833;49.324;8.694;2023-04-19T10:23:27;100218.31;;;13.73;71.92
38716;BME280;24833;49.324;8.694;2023-04-19T10:25:58;100218.72;;;13.70;71.78
38716;BME280;24833;49.324;8.694;2023-04-19T10:28:28;100212.13;;;13.66;71.55
38716;BME280;24833;49.324;8.694;2023-04-19T10:31:02;100209.00;;;13.62;71.55
38716;BME280;24833;49.324;8.694;2023-04-19T10:33:39;100206.94;;;13.57;71.44
38716;BME280;24833;49.324;8.694;2023-04-19T10:36:13;100207.56;;;13.53;71.60
38716;BME280;24833;49.324;8.694;2023-04-19T10:38:48;100206.31;;;13.49;71.26
38716;BME280;24833;49.324;8.694;2023-04-19T10:41:20;100205.09;;;13.45;71.59
38716;BME280;24833;49.324;8.694;2023-04-19T10:48:56;100191.00;;;13.36;71.21
38716;BME280;24833;49.324;8.694;2023-04-19T10:51:34;100194.31;;;13.31;71.54
38716;BME280;24833;49.324;8.694;2023-04-19T10:54:26;100194.72;;;13.28;71.28
38716;BME280;24833;49.324;8.694;2023-04-19T10:57:06;100201.53;;;13.24;71.41
38716;BME280;24833;49.324;8.694;2023-04-19T10:59:35;100179.63;;;13.21;71.30
38716;BME280;24833;49.324;8.694;2023-04-19T11:07:21;100174.00;;;13.09;71.48
38716;BME280;24833;49.324;8.694;2023-04-19T11:09:48;100177.72;;;13.08;71.04
38716;BME280;24833;49.324;8.694;2023-04-19T11:12:19;100174.41;;;13.06;71.11
38716;BME280;24833;49.324;8.694;2023-04-19T11:14:57;100170.47;;;13.02;71.38
38716;BME280;24833;49.324;8.694;2023-04-19T11:17:29;100164.50;;;13.00;70.87
38716;BME280;24833;49.324;8.694;2023-04-19T11:20:08;100164.88;;;12.97;70.93
38716;BME280;24833;49.324;8.694;2023-04-19T11:22:45;100157.25;;;12.94;71.20
38716;BME280;24833;49.324;8.694;2023-04-19T11:25:20;100151.28;;;12.92;70.99
38716;BME280;24833;49.324;8.694;2023-04-19T11:27:51;100150.63;;;12.90;71.38
38716;BME280;24833;49.324;8.694;2023-04-19T11:30:21;100140.31;;;12.87;70.97
38716;BME280;24833;49.324;8.694;2023-04-19T11:32:52;100146.72;;;12.86;71.01
38716;BME280;24833;49.324;8.694;2023-04-19T11:35:25;100141.56;;;12.84;71.34
38716;BME280;24833;49.324;8.694;2023-04-19T11:37:54;100147.09;;;12.82;71.26
38716;BME280;24833;49.324;8.694;2023-04-19T11:40:24;100145.66;;;12.80;71.21
38716;BME280;24833;49.324;8.694;2023-04-19T11:43:00;100135.97;;;12.79;71.24
38716;BME280;24833;49.324;8.694;2023-04-19T11:45:32;100139.69;;;12.78;71.14
38716;BME280;24833;49.324;8.694;2023-04-19T11:48:05;100136.34;;;12.76;71.26
38716;BME280;24833;49.324;8.694;2023-04-19T11:50:40;100131.81;;;12.76;71.04
38716;BME280;24833;49.324;8.694;2023-04-19T11:53:16;100134.31;;;12.78;71.52
38716;BME280;24833;49.324;8.694;2023-04-19T11:55:48;100125.66;;;12.82;71.36
38716;BME280;24833;49.324;8.694;2023-04-19T11:58:30;100131.88;;;12.90;71.79
38716;BME280;24833;49.324;8.694;2023-04-19T12:01:05;100120.34;;;12.96;71.85
38716;BME280;24833;49.324;8.694;2023-04-19T12:03:34;100123.25;;;13.01;72.20
38716;BME280;24833;49.324;8.694;2023-04-19T12:06:12;100121.41;;;13.08;72.23
38716;BME280;24833;49.324;8.694;2023-04-19T12:08:48;100115.84;;;13.16;72.32
38716;BME280;24833;49.324;8.694;2023-04-19T12:11:17;100110.50;;;13.23;72.12
38716;BME280;24833;49.324;8.694;2023-04-19T12:14:15;100113.84;;;13.31;72.28
38716;BME280;24833;49.324;8.694;2023-04-19T12:16:44;100109.31;;;13.39;72.17
38716;BME280;24833;49.324;8.694;2023-04-19T12:21:40;100108.06;;;13.48;72.20
38716;BME280;24833;49.324;8.694;2023-04-19T12:24:07;100101.44;;;13.50;71.72
38716;BME280;24833;49.324;8.694;2023-04-19T12:26:35;100108.50;;;13.51;71.78
38716;BME280;24833;49.324;8.694;2023-04-19T12:29:02;100105.59;;;13.53;72.17
38716;BME280;24833;49.324;8.694;2023-04-19T12:31:30;100103.53;;;13.55;72.10
38716;BME280;24833;49.324;8.694;2023-04-19T12:34:00;100098.59;;;13.58;72.10
38716;BME280;24833;49.324;8.694;2023-04-19T12:36:27;100098.97;;;13.62;72.42
38716;BME280;24833;49.324;8.694;2023-04-19T12:38:56;100093.22;;;13.65;72.02
38716;BME280;24833;49.324;8.694;2023-04-19T12:41:23;100096.50;;;13.67;71.43
38716;BME280;24833;49.324;8.694;2023-04-19T12:43:49;100090.72;;;13.63;70.64
38716;BME280;24833;49.324;8.694;2023-04-19T12:46:16;100086.59;;;13.61;70.79
38716;BME280;24833;49.324;8.694;2023-04-19T12:48:43;100077.13;;;13.58;71.27
38716;BME280;24833;49.324;8.694;2023-04-19T12:51:10;100079.59;;;13.60;71.70
38716;BME280;24833;49.324;8.694;2023-04-19T12:53:40;100077.53;;;13.55;70.59
38716;BME280;24833;49.324;8.694;2023-04-19T12:56:07;100080.41;;;13.54;71.03
38716;BME280;24833;49.324;8.694;2023-04-19T12:58:34;100070.50;;;13.54;71.59
38716;BME280;24833;49.324;8.694;2023-04-19T13:01:01;100075.44;;;13.64;72.06
38716;BME280;24833;49.324;8.694;2023-04-19T13:03:28;100061.38;;;13.82;72.67
38716;BME280;24833;49.324;8.694;2023-04-19T13:05:59;100071.28;;;13.95;73.06
38716;BME280;24833;49.324;8.694;2023-04-19T13:08:26;100065.88;;;14.08;72.76
38716;BME280;24833;49.324;8.694;2023-04-19T13:11:11;100066.06;;;14.13;72.36
38716;BME280;24833;49.324;8.694;2023-04-19T13:13:38;100061.31;;;14.15;70.95
38716;BME280;24833;49.324;8.694;2023-04-19T13:16:05;100055.94;;;14.15;70.48
38716;BME280;24833;49.324;8.694;2023-04-19T13:18:34;100056.38;;;14.12;70.04
38716;BME280;24833;49.324;8.694;2023-04-19T13:21:01;100050.56;;;14.15;70.90